Time;durP1;ratioP1;P1;durP2;ratioP2;P2;SDS_P1;SDS_P2;PMS_P1;PMS_P2;Temp;Humidity;BMP_temperature;BMP_pressure;BME280_temperature;BME280_humidity;BME280_pressure;Samples;Min_cycle;Max_cycle;Signal;HPM_P1;HPM_P2
2023/01/23 00:00:41;;;;;;;;;;;;;;;20.20;46.17;102957.03;4898575;29;4182;-67
2023/01/23 00:03:07;;;;;;;;;;;;;;;20.20;46.20;102957.03;4897059;29;4235;-66
2023/01/23 00:05:34;;;;;;;;;;;;;;;20.19;46.26;102955.53;4901586;29;4127;-67
2023/01/23 00:08:00;;;;;;;;;;;;;;;20.19;46.18;102967.03;4900635;29;5232;-66
2023/01/23 00:10:26;;;;;;;;;;;;;;;20.19;46.14;102961.28;4903543;29;4151;-66
2023/01/23 00:12:53;;;;;;;;;;;;;;;20.18;45.95;102960.53;4900263;29;4014;-66
2023/01/23 00:15:19;;;;;;;;;;;;;;;20.18;46.05;102963.41;4900015;29;4173;-66
2023/01/23 00:17:47;;;;;;;;;;;;;;;20.17;45.82;102959.00;4901685;29;4190;-66
2023/01/23 00:20:13;;;;;;;;;;;;;;;20.17;45.95;102969.75;4898808;29;4166;-66
2023/01/23 00:22:39;;;;;;;;;;;;;;;20.16;45.85;102963.25;4902368;29;5221;-66
2023/01/23 00:25:06;;;;;;;;;;;;;;;20.16;45.76;102965.34;4901440;29;4204;-66
2023/01/23 00:27:32;;;;;;;;;;;;;;;20.16;45.67;102956.72;4901301;29;4020;-66
2023/01/23 00:29:58;;;;;;;;;;;;;;;20.13;45.87;102958.66;4901482;29;4645;-67
2023/01/23 00:32:26;;;;;;;;;;;;;;;20.13;45.58;102957.91;4899727;29;4218;-66
2023/01/23 00:34:52;;;;;;;;;;;;;;;20.15;45.55;102963.81;4902464;29;4227;-64
2023/01/23 00:37:19;;;;;;;;;;;;;;;20.14;45.55;102970.94;4914737;29;4534;-66
2023/01/23 00:39:45;;;;;;;;;;;;;;;20.13;45.55;102963.66;4900301;29;4363;-66
2023/01/23 00:42:11;;;;;;;;;;;;;;;20.12;45.47;102967.91;4902769;29;4186;-66
2023/01/23 00:44:38;;;;;;;;;;;;;;;20.12;45.56;102968.66;4895389;29;5389;-67
2023/01/23 00:47:05;;;;;;;;;;;;;;;20.11;45.50;102975.75;4897030;29;4183;-66
2023/01/23 00:49:31;;;;;;;;;;;;;;;20.10;45.47;102962.75;4913278;29;4218;-66
2023/01/23 00:51:57;;;;;;;;;;;;;;;20.11;45.57;102963.50;4908591;29;4169;-67
2023/01/23 00:54:26;;;;;;;;;;;;;;;20.09;45.62;102970.63;4898639;29;4216;-66
2023/01/23 00:56:52;;;;;;;;;;;;;;;20.08;45.48;102969.06;4902810;29;4261;-66
2023/01/23 00:59:21;;;;;;;;;;;;;;;20.07;45.62;102973.31;4893708;29;4030;-66
2023/01/23 01:01:47;;;;;;;;;;;;;;;20.06;45.48;102966.03;4894112;29;4157;-67
2023/01/23 01:04:14;;;;;;;;;;;;;;;20.05;45.73;102969.53;4894061;29;4913;-66
2023/01/23 01:06:40;;;;;;;;;;;;;;;20.04;45.68;102973.75;4899142;29;4205;-66
2023/01/23 01:09:07;;;;;;;;;;;;;;;20.06;45.82;102982.53;4904254;29;4197;-67
2023/01/23 01:11:33;;;;;;;;;;;;;;;20.05;45.89;102978.91;4895668;29;4265;-67
2023/01/23 01:14:00;;;;;;;;;;;;;;;20.06;45.77;102988.28;4915029;29;4113;-66
2023/01/23 01:16:26;;;;;;;;;;;;;;;20.07;45.89;102984.06;4909143;29;4075;-67
2023/01/23 01:18:53;;;;;;;;;;;;;;;20.08;46.03;102991.34;4903784;29;4288;-67
2023/01/23 01:21:19;;;;;;;;;;;;;;;20.09;46.08;102999.38;4898071;29;4537;-67
2023/01/23 01:23:46;;;;;;;;;;;;;;;20.11;46.15;103000.88;4898685;29;4474;-67
2023/01/23 01:26:12;;;;;;;;;;;;;;;20.10;46.03;103000.13;4892671;29;4138;-66
2023/01/23 01:28:39;;;;;;;;;;;;;;;20.11;46.01;103000.88;4893080;29;4211;-67
2023/01/23 01:31:06;;;;;;;;;;;;;;;20.11;46.01;103004.50;4911046;29;5286;-66
2023/01/23 01:33:33;;;;;;;;;;;;;;;20.12;46.04;103008.19;4903206;29;4116;-64
2023/01/23 01:36:00;;;;;;;;;;;;;;;20.11;45.94;103009.53;4895509;29;4138;-67
2023/01/23 01:38:26;;;;;;;;;;;;;;;20.11;45.78;103001.63;4902098;29;5456;-67
2023/01/23 01:40:52;;;;;;;;;;;;;;;20.11;45.86;103007.41;4894757;29;4138;-66
2023/01/23 01:43:20;;;;;;;;;;;;;;;20.11;45.75;103007.41;4918335;29;4133;-66
2023/01/23 01:46:05;;;;;;;;;;;;;;;20.11;45.77;103007.41;4917284;29;4484;-67
2023/01/23 01:48:33;;;;;;;;;;;;;;;20.11;45.82;103012.41;4899920;29;4253;-66
2023/01/23 01:51:00;;;;;;;;;;;;;;;20.09;45.74;103016.63;4903615;29;3991;-66
2023/01/23 01:53:26;;;;;;;;;;;;;;;20.09;45.86;103010.88;4910328;29;4142;-67
2023/01/23 01:55:52;;;;;;;;;;;;;;;20.09;45.97;103022.38;4895125;29;4117;-67
2023/01/23 01:58:19;;;;;;;;;;;;;;;20.09;46.12;103016.63;4910417;29;5495;-66
2023/01/23 02:00:45;;;;;;;;;;;;;;;20.11;46.07;103021.78;4900262;29;4155;-67
2023/01/23 02:03:12;;;;;;;;;;;;;;;20.12;46.27;103016.81;4900516;29;4013;-67
2023/01/23 02:05:45;;;;;;;;;;;;;;;20.12;46.01;103016.81;4898080;29;5385;-67
2023/01/23 02:08:17;;;;;;;;;;;;;;;20.11;46.06;103018.16;4894557;29;4074;-66
2023/01/23 02:22:17;;;;;;;;;;;;;;;20.09;45.78;103022.38;4888745;29;5221;-67
2023/01/23 02:24:46;;;;;;;;;;;;;;;20.09;46.00;103021.63;4898208;29;5328;-67
2023/01/23 02:27:13;;;;;;;;;;;;;;;20.09;45.90;103033.91;4881571;29;4186;-67
2023/01/23 02:29:41;;;;;;;;;;;;;;;20.09;46.05;103036.03;4905768;29;4153;-66
2023/01/23 02:32:07;;;;;;;;;;;;;;;20.08;46.15;103022.97;4912561;29;5204;-67
2023/01/23 02:34:34;;;;;;;;;;;;;;;20.07;46.11;103024.34;4897281;29;4154;-66
2023/01/23 02:37:00;;;;;;;;;;;;;;;20.09;45.98;103039.66;4897872;29;4013;-66
2023/01/23 02:39:28;;;;;;;;;;;;;;;20.09;46.07;103028.16;4912835;29;4162;-66
2023/01/23 02:41:55;;;;;;;;;;;;;;;20.09;46.29;103028.16;4900507;29;5348;-66
2023/01/23 02:44:33;;;;;;;;;;;;;;;20.10;46.21;103034.66;4903003;29;4236;-66
2023/01/23 02:47:07;;;;;;;;;;;;;;;20.11;46.31;103035.41;4890826;29;4078;-66
2023/01/23 02:49:33;;;;;;;;;;;;;;;20.11;46.33;103029.66;4898300;29;4090;-66
2023/01/23 02:52:02;;;;;;;;;;;;;;;20.11;46.26;103035.41;4910814;29;4160;-65
2023/01/23 02:54:29;;;;;;;;;;;;;;;20.11;46.17;103041.16;4894650;29;4133;-66
2023/01/23 02:56:56;;;;;;;;;;;;;;;20.11;46.17;103049.78;4895291;29;5188;-66
2023/01/23 03:02:08;;;;;;;;;;;;;;;20.11;46.30;103049.78;4897709;29;4166;-66
2023/01/23 03:04:34;;;;;;;;;;;;;;;20.11;46.22;103058.41;4900099;29;4171;-66
2023/01/23 03:07:01;;;;;;;;;;;;;;;20.09;46.05;103051.16;4896756;29;4202;-65
2023/01/23 03:09:27;;;;;;;;;;;;;;;20.09;46.22;103056.91;4880800;29;4578;-65
2023/01/23 03:11:54;;;;;;;;;;;;;;;20.08;45.98;103043.13;4893804;29;4366;-65
2023/01/23 03:14:21;;;;;;;;;;;;;;;20.08;45.94;103061.13;4875177;29;4195;-66
2023/01/23 03:16:50;;;;;;;;;;;;;;;20.08;46.10;103060.38;4893648;29;6329;-65
2023/01/23 03:19:17;;;;;;;;;;;;;;;20.06;46.03;103060.19;4889290;29;5383;-65
2023/01/23 03:21:44;;;;;;;;;;;;;;;20.07;46.14;103064.63;4894831;29;4191;-66
2023/01/23 03:24:11;;;;;;;;;;;;;;;20.05;46.08;103076.69;4898315;29;4180;-65
2023/01/23 03:26:38;;;;;;;;;;;;;;;20.05;46.10;103064.44;4899848;29;4469;-66
2023/01/23 03:31:51;;;;;;;;;;;;;;;20.03;46.22;103070.78;4892494;29;4216;-65
2023/01/23 03:34:17;;;;;;;;;;;;;;;20.02;46.13;103069.28;4894118;29;5277;-66
2023/01/23 03:36:44;;;;;;;;;;;;;;;20.04;46.22;103072.31;4897547;29;4154;-66
2023/01/23 03:41:55;;;;;;;;;;;;;;;20.02;45.95;103083.66;4897592;29;4207;-66
2023/01/23 03:44:24;;;;;;;;;;;;;;;20.02;45.97;103085.75;4881854;29;5216;-66
2023/01/23 03:46:51;;;;;;;;;;;;;;;20.01;46.21;103090.75;4894172;29;4252;-65
2023/01/23 03:49:17;;;;;;;;;;;;;;;20.01;46.10;103090.75;4902069;29;4161;-66
2023/01/23 03:51:54;;;;;;;;;;;;;;;20.01;46.19;103090.75;4894568;29;4252;-66
2023/01/23 03:54:20;;;;;;;;;;;;;;;20.03;46.34;103087.28;4897913;29;4126;-66
2023/01/23 03:56:47;;;;;;;;;;;;;;;20.04;46.31;103092.44;4878742;29;5097;-65
2023/01/23 03:59:33;;;;;;;;;;;;;;;20.05;46.25;103102.59;4898149;29;4093;-66
2023/01/23 04:02:03;;;;;;;;;;;;;;;20.06;46.38;103098.34;4900742;29;4076;-66
2023/01/23 04:04:32;;;;;;;;;;;;;;;20.08;46.33;103107.16;4898878;29;4021;-66
2023/01/23 04:07:00;;;;;;;;;;;;;;;20.09;46.30;103107.94;4899703;29;4220;-66
2023/01/23 04:09:28;;;;;;;;;;;;;;;20.09;46.40;103100.06;4914741;29;4164;-66
2023/01/23 04:11:56;;;;;;;;;;;;;;;20.12;46.46;103111.72;4914856;29;5349;-66
2023/01/23 04:14:22;;;;;;;;;;;;;;;20.12;46.55;103114.63;4911209;29;5280;-65
2023/01/23 04:16:49;;;;;;;;;;;;;;;20.13;46.45;103113.25;4914274;29;4206;-65
2023/01/23 04:19:18;;;;;;;;;;;;;;;20.12;46.54;103109.63;4900988;29;4354;-65
2023/01/23 04:21:45;;;;;;;;;;;;;;;20.12;46.60;103111.72;4917405;29;4503;-66
2023/01/23 04:24:12;;;;;;;;;;;;;;;20.12;46.69;103108.84;4915918;29;4275;-66
2023/01/23 04:26:38;;;;;;;;;;;;;;;20.11;46.65;103116.69;4899271;29;4125;-66
2023/01/23 04:29:05;;;;;;;;;;;;;;;20.12;46.77;103120.38;4913087;29;4085;-65
2023/01/23 04:31:31;;;;;;;;;;;;;;;20.12;46.64;103117.50;4904064;29;4146;-66
2023/01/23 04:33:58;;;;;;;;;;;;;;;20.11;46.85;103124.59;4915872;29;5219;-66
2023/01/23 04:36:25;;;;;;;;;;;;;;;20.13;46.86;103121.88;4899967;29;4176;-66
2023/01/23 04:38:52;;;;;;;;;;;;;;;20.14;46.70;103126.28;4908489;29;4143;-66
2023/01/23 04:41:24;;;;;;;;;;;;;;;20.15;46.84;103127.81;4913243;29;4190;-66
2023/01/23 04:46:45;;;;;;;;;;;;;;;20.15;46.93;103122.81;4894350;29;4158;-66
2023/01/23 04:49:13;;;;;;;;;;;;;;;20.15;47.03;103127.81;4898870;29;4068;-65
2023/01/23 04:51:40;;;;;;;;;;;;;;;20.14;46.97;103120.53;4900021;29;4175;-66
2023/01/23 04:54:06;;;;;;;;;;;;;;;20.15;47.06;103116.28;4898757;29;4135;-65
2023/01/23 04:56:33;;;;;;;;;;;;;;;20.14;46.91;103117.66;4907623;29;5240;-66
2023/01/23 04:59:02;;;;;;;;;;;;;;;20.14;46.89;103112.66;4912716;29;4446;-65
2023/01/23 05:01:28;;;;;;;;;;;;;;;20.13;47.08;103114.00;4912915;29;4099;-66
2023/01/23 05:03:59;;;;;;;;;;;;;;;20.15;47.00;103107.66;4915523;29;4223;-66
2023/01/23 05:06:25;;;;;;;;;;;;;;;20.16;47.00;103112.06;4896519;29;5041;-65
2023/01/23 05:08:54;;;;;;;;;;;;;;;20.16;46.88;103112.06;4885873;29;4252;-65
2023/01/23 05:11:26;;;;;;;;;;;;;;;20.18;47.09;103115.09;4879095;29;5111;-65
2023/01/23 05:13:53;;;;;;;;;;;;;;;20.17;47.15;103113.59;4875297;29;4484;-66
2023/01/23 05:16:19;;;;;;;;;;;;;;;20.17;47.20;103113.59;4877011;29;4227;-66
2023/01/23 05:19:06;;;;;;;;;;;;;;;20.17;47.15;103116.47;4875879;29;4508;-66
2023/01/23 05:21:34;;;;;;;;;;;;;;;20.16;47.13;103124.34;4892728;29;5244;-66
2023/01/23 05:24:00;;;;;;;;;;;;;;;20.15;47.02;103125.69;4881923;29;4165;-66
2023/01/23 05:26:26;;;;;;;;;;;;;;;20.16;47.26;103123.56;4886243;29;5274;-66
2023/01/23 05:28:54;;;;;;;;;;;;;;;20.17;47.15;103125.09;4888800;29;4149;-66
2023/01/23 05:31:20;;;;;;;;;;;;;;;20.16;47.34;103129.31;4878555;29;4153;-66
2023/01/23 05:34:07;;;;;;;;;;;;;;;20.17;47.10;103136.59;4876421;29;4210;-66
2023/01/23 05:36:35;;;;;;;;;;;;;;;20.18;47.23;103132.38;4874997;29;4578;-67
2023/01/23 05:39:02;;;;;;;;;;;;;;;20.19;47.19;103128.16;4882732;29;4070;-66
2023/01/23 05:41:28;;;;;;;;;;;;;;;20.20;47.34;103121.81;4864436;29;4151;-67
2023/01/23 05:44:12;;;;;;;;;;;;;;;20.21;47.31;103122.56;4880292;29;4099;-67
2023/01/23 05:46:47;;;;;;;;;;;;;;;20.21;47.16;103125.44;4881824;29;4121;-66
2023/01/23 05:49:13;;;;;;;;;;;;;;;20.22;47.50;103126.94;4880325;29;4004;-66
2023/01/23 05:51:40;;;;;;;;;;;;;;;20.22;47.30;103130.59;4859911;29;5271;-66
2023/01/23 05:54:06;;;;;;;;;;;;;;;20.23;47.37;103131.38;4859628;29;4891;-66
2023/01/23 05:56:33;;;;;;;;;;;;;;;20.22;47.30;103144.97;4887830;29;4184;-66
2023/01/23 05:59:25;;;;;;;;;;;;;;;20.21;47.36;103136.94;4876864;29;4157;-66
2023/01/23 06:02:00;;;;;;;;;;;;;;;20.20;47.38;103153.44;4856478;29;4450;-66
2023/01/23 06:04:49;;;;;;;;;;;;;;;20.21;47.76;103157.09;4873830;29;5243;-67
2023/01/23 06:07:27;;;;;;;;;;;;;;;20.26;47.62;103158.94;4887973;29;4494;-66
2023/01/23 06:09:55;;;;;;;;;;;;;;;20.27;47.90;103160.44;4898101;29;4451;-64
2023/01/23 06:12:22;;;;;;;;;;;;;;;19.63;47.06;103163.75;4906605;29;4236;-67
2023/01/23 06:14:48;;;;;;;;;;;;;;;19.86;46.92;103163.56;4864705;29;4379;-67
2023/01/23 06:17:14;;;;;;;;;;;;;;;20.02;47.17;103167.06;4900884;29;4055;-68
2023/01/23 06:19:41;;;;;;;;;;;;;;;20.11;47.57;103165.59;4905985;29;4081;-68
2023/01/23 06:22:09;;;;;;;;;;;;;;;20.14;47.21;103178.06;4912218;29;4233;-67
2023/01/23 06:24:53;;;;;;;;;;;;;;;20.18;47.78;103175.50;4889648;29;5590;-73
2023/01/23 06:27:20;;;;;;;;;;;;;;;20.39;48.95;103178.75;4883135;29;4542;-71
2023/01/23 06:29:46;;;;;;;;;;;;;;;20.45;48.79;103172.72;4895764;29;6380;-69
2023/01/23 06:32:13;;;;;;;;;;;;;;;20.46;48.26;103169.25;4887835;29;4148;-67
2023/01/23 06:34:40;;;;;;;;;;;;;;;20.45;48.65;103167.72;4872981;29;4228;-67
2023/01/23 06:37:08;;;;;;;;;;;;;;;20.49;48.41;103173.81;4901021;29;4208;-67
2023/01/23 06:39:35;;;;;;;;;;;;;;;20.54;48.23;103174.16;4911492;29;5240;-66
2023/01/23 06:42:08;;;;;;;;;;;;;;;20.56;48.35;103183.75;4903752;29;4225;-69
2023/01/23 06:44:38;;;;;;;;;;;;;;;20.56;48.64;103177.22;4889991;29;6084;-66
2023/01/23 06:47:05;;;;;;;;;;;;;;;20.50;48.59;103181.13;4897557;29;4161;-69
2023/01/23 06:49:31;;;;;;;;;;;;;;;20.65;48.75;103179.44;4889220;29;4238;-68
2023/01/23 06:51:58;;;;;;;;;;;;;;;20.68;48.61;103186.88;4910988;29;5538;-66
2023/01/23 06:54:31;;;;;;;;;;;;;;;20.71;48.71;103195.09;4906466;29;5260;-67
2023/01/23 06:57:00;;;;;;;;;;;;;;;20.74;48.63;103198.91;4910636;29;5521;-66
2023/01/23 06:59:27;;;;;;;;;;;;;;;20.79;49.07;103197.88;4896059;29;4418;-68
2023/01/23 07:01:55;;;;;;;;;;;;;;;20.81;49.10;103198.03;4895527;29;4254;-67
2023/01/23 07:04:23;;;;;;;;;;;;;;;20.84;49.19;103202.59;4893594;29;4160;-68
2023/01/23 07:06:50;;;;;;;;;;;;;;;20.83;49.28;103201.09;4899143;29;4162;-67
2023/01/23 07:09:18;;;;;;;;;;;;;;;20.85;49.03;103197.63;4910117;29;4213;-66
2023/01/23 07:11:52;;;;;;;;;;;;;;;20.85;49.15;103204.13;4905829;29;4169;-66
2023/01/23 07:14:19;;;;;;;;;;;;;;;20.90;49.08;103208.84;4909898;29;4277;-67
2023/01/23 07:16:50;;;;;;;;;;;;;;;20.90;49.51;103211.75;4909048;29;4318;-67
2023/01/23 07:19:16;;;;;;;;;;;;;;;20.91;49.54;103213.28;4894816;29;5488;-67
2023/01/23 07:21:42;;;;;;;;;;;;;;;20.93;49.60;103216.31;4907908;29;5741;-67
2023/01/23 07:24:09;;;;;;;;;;;;;;;20.92;49.64;103211.91;4897158;29;4264;-66
2023/01/23 07:26:35;;;;;;;;;;;;;;;20.96;49.66;103217.25;4884781;29;4665;-67
2023/01/23 07:29:01;;;;;;;;;;;;;;;21.00;49.92;103226.19;4894118;29;4159;-67
2023/01/23 07:31:28;;;;;;;;;;;;;;;20.97;49.76;103227.41;4897320;29;4263;-66
2023/01/23 07:33:54;;;;;;;;;;;;;;;20.95;49.58;103229.34;4892945;29;6147;-66
2023/01/23 07:36:21;;;;;;;;;;;;;;;20.98;50.29;103233.91;4893814;29;5386;-67
2023/01/23 07:38:47;;;;;;;;;;;;;;;20.98;50.26;103239.69;4894792;29;4181;-66
2023/01/23 07:41:13;;;;;;;;;;;;;;;20.99;49.81;103232.56;4896327;29;5940;-72
2023/01/23 07:43:40;;;;;;;;;;;;;;;20.98;49.89;103228.16;4901638;29;4145;-67
2023/01/23 07:46:08;;;;;;;;;;;;;;;20.98;49.51;103231.81;4894685;29;4333;-67
2023/01/23 07:48:37;;;;;;;;;;;;;;;20.98;49.01;103228.16;4898558;29;5378;-69
2023/01/23 07:51:04;;;;;;;;;;;;;;;21.00;49.25;103225.44;4901250;29;4197;-67
2023/01/23 07:53:30;;;;;;;;;;;;;;;21.03;49.40;103227.16;4901590;29;4296;-71
2023/01/23 07:55:56;;;;;;;;;;;;;;;20.96;49.13;103228.00;4889535;29;4149;-67
2023/01/23 07:58:23;;;;;;;;;;;;;;;20.86;49.57;103233.69;4899356;29;4327;-68
2023/01/23 08:00:49;;;;;;;;;;;;;;;20.43;49.68;103221.47;4891425;29;5246;-68
2023/01/23 08:03:15;;;;;;;;;;;;;;;20.64;49.44;103224.00;4894412;29;4290;-67
2023/01/23 08:05:46;;;;;;;;;;;;;;;20.71;48.91;103223.13;4896168;29;4160;-67
2023/01/23 08:08:12;;;;;;;;;;;;;;;20.73;48.60;103226.19;4899219;29;4192;-67
2023/01/23 08:10:39;;;;;;;;;;;;;;;20.73;48.89;103226.19;4895234;29;4155;-67
2023/01/23 08:13:05;;;;;;;;;;;;;;;20.73;48.96;103220.41;4900071;29;4211;-67
2023/01/23 08:15:32;;;;;;;;;;;;;;;20.74;48.86;103221.94;4900110;29;5170;-71
2023/01/23 08:17:58;;;;;;;;;;;;;;;20.74;49.06;103226.94;4898880;29;4267;-67
2023/01/23 08:20:25;;;;;;;;;;;;;;;20.75;49.65;103223.44;4897388;29;4064;-67
2023/01/23 08:22:51;;;;;;;;;;;;;;;20.76;49.74;103224.97;4898451;29;5370;-67
2023/01/23 08:25:17;;;;;;;;;;;;;;;20.77;49.29;103232.25;4894829;29;4268;-67
2023/01/23 08:27:44;;;;;;;;;;;;;;;20.76;49.02;103239.38;4899185;29;4285;-67
2023/01/23 08:30:10;;;;;;;;;;;;;;;20.75;49.30;103246.47;4899345;29;5424;-66
2023/01/23 08:32:36;;;;;;;;;;;;;;;21.08;49.69;103241.28;4896602;29;4618;-70
2023/01/23 08:35:03;;;;;;;;;;;;;;;21.23;49.07;103248.19;4901470;29;4163;-70
2023/01/23 08:37:32;;;;;;;;;;;;;;;21.26;48.84;103253.53;4896098;29;4606;-72
2023/01/23 08:39:58;;;;;;;;;;;;;;;21.26;48.25;103264.28;4898038;29;4531;-70
2023/01/23 08:42:25;;;;;;;;;;;;;;;21.24;47.98;103267.75;4898488;29;3944;-70
2023/01/23 08:44:51;;;;;;;;;;;;;;;21.24;48.28;103267.75;4898070;29;4135;-70
2023/01/23 08:47:17;;;;;;;;;;;;;;;21.26;47.70;103272.94;4899684;29;5325;-70
2023/01/23 08:49:44;;;;;;;;;;;;;;;21.29;47.71;103275.38;4897778;29;5353;-70
2023/01/23 08:52:10;;;;;;;;;;;;;;;21.27;47.84;103289.63;4896885;29;4231;-71
2023/01/23 08:54:37;;;;;;;;;;;;;;;21.28;47.86;103291.16;4900298;29;4198;-70
2023/01/23 08:57:03;;;;;;;;;;;;;;;21.30;47.83;103299.19;4896839;29;5306;-73
2023/01/23 08:59:30;;;;;;;;;;;;;;;21.36;47.88;103296.06;4898047;29;4056;-73
2023/01/23 09:01:56;;;;;;;;;;;;;;;21.37;47.83;103298.31;4900951;29;4747;-71
2023/01/23 09:04:23;;;;;;;;;;;;;;;21.34;47.77;103306.03;4888357;29;4176;-72
2023/01/23 09:06:49;;;;;;;;;;;;;;;21.29;47.75;103304.19;4899733;29;4504;-70
2023/01/23 09:09:16;;;;;;;;;;;;;;;21.33;47.63;103303.78;4899082;29;4352;-71
2023/01/23 09:11:45;;;;;;;;;;;;;;;21.34;47.57;103311.81;4897377;29;4524;-72
2023/01/23 09:14:11;;;;;;;;;;;;;;;21.29;47.67;103314.97;4904044;29;4115;-64
2023/01/23 09:16:39;;;;;;;;;;;;;;;21.30;47.23;103317.28;4902719;29;4143;-64
2023/01/23 09:19:07;;;;;;;;;;;;;;;21.19;47.65;103332.19;4891989;29;4360;-65
2023/01/23 09:21:33;;;;;;;;;;;;;;;21.24;47.67;103328.28;4896632;29;4215;-65
2023/01/23 09:23:59;;;;;;;;;;;;;;;21.26;47.56;103328.47;4887938;29;4109;-66
2023/01/23 09:26:26;;;;;;;;;;;;;;;21.29;47.32;103330.13;4895145;29;5292;-65
2023/01/23 09:28:53;;;;;;;;;;;;;;;21.32;47.54;103331.06;4898111;29;5558;-65
2023/01/23 09:31:19;;;;;;;;;;;;;;;21.08;47.63;103335.59;4913503;29;4238;-65
2023/01/23 09:33:46;;;;;;;;;;;;;;;20.99;48.06;103339.16;4899676;29;5328;-65
2023/01/23 09:36:13;;;;;;;;;;;;;;;20.93;48.18;103334.41;4899207;29;5469;-64
2023/01/23 09:38:39;;;;;;;;;;;;;;;20.90;48.45;103332.72;4899161;29;4176;-65
2023/01/23 09:41:06;;;;;;;;;;;;;;;20.92;48.54;103332.88;4898445;29;4674;-65
2023/01/23 09:43:36;;;;;;;;;;;;;;;20.98;48.45;103331.84;4890579;29;4197;-68
2023/01/23 09:46:09;;;;;;;;;;;;;;;21.00;48.46;103343.56;4896530;29;4143;-65
2023/01/23 09:48:43;;;;;;;;;;;;;;;21.02;48.22;103337.97;4902534;29;5256;-66
2023/01/23 09:51:11;;;;;;;;;;;;;;;21.06;48.25;103344.81;4892397;29;4691;-66
2023/01/23 09:53:38;;;;;;;;;;;;;;;21.19;47.99;103345.81;4908430;29;4259;-65
2023/01/23 09:56:20;;;;;;;;;;;;;;;21.30;48.10;103346.09;4894517;29;4040;-66
2023/01/23 09:58:57;;;;;;;;;;;;;;;21.21;48.29;103355.44;4888459;29;4212;-66
2023/01/23 10:01:24;;;;;;;;;;;;;;;21.30;47.84;103351.84;4896309;29;4063;-66
2023/01/23 10:03:50;;;;;;;;;;;;;;;21.37;47.91;103338.69;4911637;29;5287;-67
2023/01/23 10:06:22;;;;;;;;;;;;;;;21.69;46.89;103337.72;4897401;29;4979;-68
2023/01/23 10:08:52;;;;;;;;;;;;;;;21.44;47.54;103343.63;4894185;29;5379;-67
2023/01/23 10:11:41;;;;;;;;;;;;;;;21.37;47.62;103343.69;4908761;29;4197;-67
2023/01/23 10:14:21;;;;;;;;;;;;;;;21.34;47.93;103340.63;4893418;29;4861;-66
2023/01/23 10:17:11;;;;;;;;;;;;;;;21.44;47.39;103340.75;4895821;29;5298;-69
2023/01/23 10:19:39;;;;;;;;;;;;;;;21.39;47.07;103338.84;4897647;29;4194;-68
2023/01/23 10:22:11;;;;;;;;;;;;;;;21.33;47.32;103344.88;4896450;29;4225;-67
2023/01/23 10:24:48;;;;;;;;;;;;;;;21.31;47.18;103350.47;4886938;29;5674;-66
2023/01/23 10:27:22;;;;;;;;;;;;;;;21.39;47.16;103349.63;4889960;29;4370;-67
2023/01/23 10:29:54;;;;;;;;;;;;;;;21.44;46.98;103358.03;4898514;29;4358;-67
2023/01/23 10:32:25;;;;;;;;;;;;;;;21.40;47.06;103354.03;4893603;29;4584;-67
2023/01/23 10:35:11;;;;;;;;;;;;;;;21.38;47.51;103351.00;4898157;29;4163;-68
2023/01/23 10:37:45;;;;;;;;;;;;;;;21.38;47.55;103351.75;4897354;29;5229;-73
2023/01/23 10:40:15;;;;;;;;;;;;;;;21.37;47.33;103360.97;4897838;29;4207;-72
2023/01/23 10:42:42;;;;;;;;;;;;;;;21.41;47.08;103362.09;4899014;29;5449;-66
2023/01/23 10:45:12;;;;;;;;;;;;;;;21.41;46.99;103361.34;4888275;29;4510;-63
2023/01/23 10:47:42;;;;;;;;;;;;;;;21.39;47.05;103352.50;4910979;29;4292;-65
2023/01/23 10:50:09;;;;;;;;;;;;;;;21.42;47.00;103360.00;4899560;29;4137;-65
2023/01/23 10:52:44;;;;;;;;;;;;;;;21.44;46.71;103355.16;4894102;29;4218;-65
2023/01/23 10:55:17;;;;;;;;;;;;;;;21.48;46.81;103360.47;4894274;29;5217;-65
2023/01/23 10:57:47;;;;;;;;;;;;;;;21.48;46.61;103354.72;4895123;29;4130;-66
2023/01/23 11:00:25;;;;;;;;;;;;;;;21.55;47.00;103350.97;4899089;29;4194;-65
2023/01/23 11:02:52;;;;;;;;;;;;;;;21.55;46.61;103350.97;4895649;29;4231;-67
2023/01/23 11:05:35;;;;;;;;;;;;;;;21.56;46.70;103346.75;4891507;29;4055;-67
2023/01/23 11:08:24;;;;;;;;;;;;;;;21.56;46.70;103345.97;4892582;29;5311;-66
2023/01/23 11:10:50;;;;;;;;;;;;;;;21.51;46.58;103359.31;4892860;29;4185;-65
2023/01/23 11:13:29;;;;;;;;;;;;;;;21.47;46.53;103350.31;4893155;29;4035;-64
2023/01/23 11:15:55;;;;;;;;;;;;;;;21.47;46.67;103348.19;4897669;29;4147;-64
2023/01/23 11:18:32;;;;;;;;;;;;;;;21.38;46.73;103351.75;4896467;29;4113;-65
2023/01/23 11:20:58;;;;;;;;;;;;;;;21.34;46.98;103343.50;4897956;29;4129;-63
2023/01/23 11:23:24;;;;;;;;;;;;;;;21.29;47.30;103347.44;4899210;29;4083;-65
2023/01/23 11:25:51;;;;;;;;;;;;;;;21.25;47.12;103346.34;4888967;29;5392;-65
2023/01/23 11:28:19;;;;;;;;;;;;;;;21.23;47.31;103334.63;4897190;29;4590;-66
2023/01/23 11:31:08;;;;;;;;;;;;;;;21.41;47.93;103335.41;4899512;29;4305;-67
2023/01/23 11:33:50;;;;;;;;;;;;;;;21.77;47.35;103337.59;4897395;29;4415;-69
2023/01/23 11:36:16;;;;;;;;;;;;;;;21.77;46.94;103333.94;4899823;29;4089;-69
2023/01/23 11:38:44;;;;;;;;;;;;;;;21.53;47.03;103333.50;4897639;29;4102;-64
2023/01/23 11:41:17;;;;;;;;;;;;;;;21.40;47.19;103336.75;4897292;29;4668;-67
2023/01/23 11:43:44;;;;;;;;;;;;;;;21.33;46.87;103327.59;4899222;29;4513;-67
2023/01/23 11:46:14;;;;;;;;;;;;;;;21.33;46.95;103327.59;4902542;29;4214;-74
2023/01/23 11:48:48;;;;;;;;;;;;;;;21.37;46.95;103332.16;4898338;29;4225;-77
2023/01/23 11:51:18;;;;;;;;;;;;;;;21.36;46.74;103327.75;4903418;29;4431;-74
2023/01/23 11:53:54;;;;;;;;;;;;;;;21.33;46.81;103323.97;4893524;29;4267;-73
2023/01/23 11:56:31;;;;;;;;;;;;;;;21.34;47.02;103334.13;4899575;29;4234;-75
2023/01/23 11:59:08;;;;;;;;;;;;;;;21.38;47.00;103327.94;4902286;29;4264;-72
2023/01/23 12:01:37;;;;;;;;;;;;;;;21.39;47.01;103324.44;4916022;29;4208;-74
2023/01/23 12:04:07;;;;;;;;;;;;;;;21.42;47.04;103317.53;4901240;29;4332;-72
2023/01/23 12:06:37;;;;;;;;;;;;;;;21.42;47.05;103316.75;4902857;29;4225;-77
2023/01/23 12:09:09;;;;;;;;;;;;;;;20.15;43.44;103306.16;4903079;29;4066;-72
2023/01/23 12:11:44;;;;;;;;;;;;;;;20.24;44.06;103303.38;4902690;29;4311;-74
2023/01/23 12:14:11;;;;;;;;;;;;;;;20.80;44.01;103305.19;4905235;29;4319;-72
2023/01/23 12:16:51;;;;;;;;;;;;;;;21.05;43.81;103296.44;4898748;29;5373;-72
2023/01/23 12:19:31;;;;;;;;;;;;;;;21.12;44.15;103292.72;4900228;29;4435;-74
2023/01/23 12:22:01;;;;;;;;;;;;;;;21.25;44.58;103297.34;4902200;29;4186;-69
2023/01/23 12:24:39;;;;;;;;;;;;;;;21.29;44.32;103304.19;4901105;29;4209;-73
2023/01/23 12:27:12;;;;;;;;;;;;;;;21.27;45.12;103306.91;4905877;29;5193;-71
2023/01/23 12:29:44;;;;;;;;;;;;;;;21.40;45.34;103307.91;4901017;29;4496;-72
2023/01/23 12:32:14;;;;;;;;;;;;;;;21.40;45.40;103302.16;4917188;29;4112;-72
2023/01/23 12:34:47;;;;;;;;;;;;;;;21.46;45.28;103302.66;4902184;29;5132;-73
2023/01/23 12:37:23;;;;;;;;;;;;;;;21.49;45.40;103310.13;4901608;29;5522;-72
2023/01/23 12:40:00;;;;;;;;;;;;;;;21.51;45.41;103301.66;4896831;29;4126;-74
2023/01/23 12:42:31;;;;;;;;;;;;;;;21.47;45.15;103298.44;4890964;29;4186;-71
2023/01/23 12:45:02;;;;;;;;;;;;;;;21.42;45.61;103299.47;4899956;29;4142;-73
2023/01/23 12:47:33;;;;;;;;;;;;;;;21.37;45.58;103291.81;4898312;29;5069;-73
2023/01/23 12:50:00;;;;;;;;;;;;;;;21.36;45.64;103304.69;4902465;29;4868;-74
2023/01/23 12:52:34;;;;;;;;;;;;;;;21.31;45.52;103307.25;4899085;29;5408;-73
2023/01/23 12:55:13;;;;;;;;;;;;;;;21.42;45.17;103303.09;4902025;29;5400;-71
2023/01/23 12:57:39;;;;;;;;;;;;;;;21.43;45.44;103303.84;4902346;29;4153;-72
2023/01/23 13:00:31;;;;;;;;;;;;;;;21.40;45.38;103297.16;4903562;29;4111;-73
2023/01/23 13:02:57;;;;;;;;;;;;;;;21.31;45.50;103297.84;4900829;29;4495;-73
2023/01/23 13:05:32;;;;;;;;;;;;;;;21.29;45.82;103292.66;4901437;29;4183;-74
2023/01/23 13:08:05;;;;;;;;;;;;;;;21.31;46.03;103295.72;4898897;29;4230;-74
2023/01/23 13:13:27;;;;;;;;;;;;;;;21.31;46.34;103289.97;4903338;29;4068;-74
2023/01/23 13:16:00;;;;;;;;;;;;;;;21.30;46.54;103304.94;4904404;29;4133;-74
2023/01/23 13:18:27;;;;;;;;;;;;;;;21.30;46.61;103305.75;4900720;29;4212;-74
2023/01/23 13:23:42;;;;;;;;;;;;;;;21.30;47.06;103305.75;4901893;29;5285;-74
2023/01/23 13:26:14;;;;;;;;;;;;;;;21.42;46.55;103313.88;4898267;29;4354;-73